sensor_id;sensor_type;location;lat;lon;timestamp;P1;durP1;ratioP1;P2;durP2;ratioP2
19891;SDS011;10108;50.142;8.724;2023-11-21T00:00:22;17.05;;;12.05;;
19891;SDS011;10108;50.142;8.724;2023-11-21T00:02:48;15.02;;;11.85;;
19891;SDS011;10108;50.142;8.724;2023-11-21T00:05:15;16.98;;;11.80;;
19891;SDS011;10108;50.142;8.724;2023-11-21T00:07:42;14.40;;;11.88;;
19891;SDS011;10108;50.142;8.724;2023-11-21T00:10:09;17.10;;;11.80;;
19891;SDS011;10108;50.142;8.724;2023-11-21T00:12:36;14.85;;;11.70;;
19891;SDS011;10108;50.142;8.724;2023-11-21T00:15:03;13.25;;;11.85;;
19891;SDS011;10108;50.142;8.724;2023-11-21T00:17:31;21.70;;;11.57;;
19891;SDS011;10108;50.142;8.724;2023-11-21T00:19:57;18.92;;;11.90;;
19891;SDS011;10108;50.142;8.724;2023-11-21T00:22:23;14.15;;;11.80;;
19891;SDS011;10108;50.142;8.724;2023-11-21T00:24:49;16.98;;;12.40;;
19891;SDS011;10108;50.142;8.724;2023-11-21T00:27:15;14.80;;;11.80;;
19891;SDS011;10108;50.142;8.724;2023-11-21T00:29:41;14.48;;;11.80;;
19891;SDS011;10108;50.142;8.724;2023-11-21T00:32:08;13.65;;;11.95;;
19891;SDS011;10108;50.142;8.724;2023-11-21T00:34:34;16.02;;;11.70;;
19891;SDS011;10108;50.142;8.724;2023-11-21T00:37:00;14.40;;;11.23;;
19891;SDS011;10108;50.142;8.724;2023-11-21T00:39:28;15.60;;;11.57;;
19891;SDS011;10108;50.142;8.724;2023-11-21T00:41:54;17.08;;;11.75;;
19891;SDS011;10108;50.142;8.724;2023-11-21T00:44:20;13.88;;;11.85;;
19891;SDS011;10108;50.142;8.724;2023-11-21T00:46:46;14.98;;;12.45;;
19891;SDS011;10108;50.142;8.724;2023-11-21T00:49:12;13.32;;;11.93;;
19891;SDS011;10108;50.142;8.724;2023-11-21T00:51:38;14.30;;;11.80;;
19891;SDS011;10108;50.142;8.724;2023-11-21T00:54:05;14.02;;;11.73;;
19891;SDS011;10108;50.142;8.724;2023-11-21T00:56:32;17.70;;;12.20;;
19891;SDS011;10108;50.142;8.724;2023-11-21T00:58:59;13.95;;;11.27;;
19891;SDS011;10108;50.142;8.724;2023-11-21T01:01:25;18.95;;;12.23;;
19891;SDS011;10108;50.142;8.724;2023-11-21T01:03:52;13.65;;;11.48;;
19891;SDS011;10108;50.142;8.724;2023-11-21T01:06:19;14.90;;;12.52;;
19891;SDS011;10108;50.142;8.724;2023-11-21T01:09:16;19.27;;;12.68;;
19891;SDS011;10108;50.142;8.724;2023-11-21T01:11:46;14.13;;;12.43;;
19891;SDS011;10108;50.142;8.724;2023-11-21T01:14:15;13.65;;;12.07;;
19891;SDS011;10108;50.142;8.724;2023-11-21T01:16:45;17.70;;;12.43;;
19891;SDS011;10108;50.142;8.724;2023-11-21T01:19:11;13.48;;;12.07;;
19891;SDS011;10108;50.142;8.724;2023-11-21T01:21:38;18.08;;;12.35;;
19891;SDS011;10108;50.142;8.724;2023-11-21T01:24:05;16.20;;;12.88;;
19891;SDS011;10108;50.142;8.724;2023-11-21T01:26:33;14.50;;;12.52;;
19891;SDS011;10108;50.142;8.724;2023-11-21T01:29:00;16.40;;;13.15;;
19891;SDS011;10108;50.142;8.724;2023-11-21T01:31:27;15.70;;;12.40;;
19891;SDS011;10108;50.142;8.724;2023-11-21T01:33:56;15.90;;;12.57;;
19891;SDS011;10108;50.142;8.724;2023-11-21T01:36:29;17.02;;;13.38;;
19891;SDS011;10108;50.142;8.724;2023-11-21T01:38:57;16.08;;;12.45;;
19891;SDS011;10108;50.142;8.724;2023-11-21T01:41:28;18.27;;;12.63;;
19891;SDS011;10108;50.142;8.724;2023-11-21T01:43:54;15.75;;;12.88;;
19891;SDS011;10108;50.142;8.724;2023-11-21T01:46:21;18.40;;;13.60;;
19891;SDS011;10108;50.142;8.724;2023-11-21T01:48:48;17.35;;;13.48;;
19891;SDS011;10108;50.142;8.724;2023-11-21T01:51:15;16.27;;;13.55;;
19891;SDS011;10108;50.142;8.724;2023-11-21T01:53:42;16.42;;;13.88;;
19891;SDS011;10108;50.142;8.724;2023-11-21T01:56:09;21.02;;;14.52;;
19891;SDS011;10108;50.142;8.724;2023-11-21T01:58:36;15.23;;;13.63;;
19891;SDS011;10108;50.142;8.724;2023-11-21T02:01:02;16.10;;;14.48;;
19891;SDS011;10108;50.142;8.724;2023-11-21T02:03:29;16.45;;;14.85;;
19891;SDS011;10108;50.142;8.724;2023-11-21T02:05:56;16.73;;;14.23;;
19891;SDS011;10108;50.142;8.724;2023-11-21T02:08:22;16.85;;;14.95;;
19891;SDS011;10108;50.142;8.724;2023-11-21T02:10:49;15.82;;;13.95;;
19891;SDS011;10108;50.142;8.724;2023-11-21T02:13:15;15.88;;;13.80;;
19891;SDS011;10108;50.142;8.724;2023-11-21T02:15:42;16.77;;;13.40;;
19891;SDS011;10108;50.142;8.724;2023-11-21T02:18:08;15.93;;;14.20;;
19891;SDS011;10108;50.142;8.724;2023-11-21T02:20:37;16.50;;;13.80;;
19891;SDS011;10108;50.142;8.724;2023-11-21T02:23:04;17.08;;;13.80;;
19891;SDS011;10108;50.142;8.724;2023-11-21T02:25:33;16.85;;;13.35;;
19891;SDS011;10108;50.142;8.724;2023-11-21T02:28:00;19.95;;;13.68;;
19891;SDS011;10108;50.142;8.724;2023-11-21T02:30:29;15.15;;;13.07;;
19891;SDS011;10108;50.142;8.724;2023-11-21T02:32:58;14.13;;;12.75;;
19891;SDS011;10108;50.142;8.724;2023-11-21T02:35:26;15.07;;;13.57;;
19891;SDS011;10108;50.142;8.724;2023-11-21T02:37:52;15.02;;;13.40;;
19891;SDS011;10108;50.142;8.724;2023-11-21T02:40:22;14.48;;;12.98;;
19891;SDS011;10108;50.142;8.724;2023-11-21T02:42:52;16.33;;;12.90;;
19891;SDS011;10108;50.142;8.724;2023-11-21T02:45:25;15.30;;;13.40;;
19891;SDS011;10108;50.142;8.724;2023-11-21T04:11:14;13.40;;;11.65;;
19891;SDS011;10108;50.142;8.724;2023-11-21T04:14:36;13.32;;;11.88;;
19891;SDS011;10108;50.142;8.724;2023-11-21T04:17:02;15.82;;;12.05;;
19891;SDS011;10108;50.142;8.724;2023-11-21T04:19:29;12.80;;;11.40;;
19891;SDS011;10108;50.142;8.724;2023-11-21T04:21:55;12.50;;;11.30;;
19891;SDS011;10108;50.142;8.724;2023-11-21T04:24:21;15.20;;;11.30;;
19891;SDS011;10108;50.142;8.724;2023-11-21T04:26:48;15.52;;;11.93;;
19891;SDS011;10108;50.142;8.724;2023-11-21T04:29:14;13.63;;;12.18;;
19891;SDS011;10108;50.142;8.724;2023-11-21T04:31:40;16.42;;;11.88;;
19891;SDS011;10108;50.142;8.724;2023-11-21T04:34:07;13.85;;;12.45;;
19891;SDS011;10108;50.142;8.724;2023-11-21T04:36:33;14.50;;;12.30;;
19891;SDS011;10108;50.142;8.724;2023-11-21T04:39:00;14.55;;;12.90;;
19891;SDS011;10108;50.142;8.724;2023-11-21T04:41:26;13.88;;;12.07;;
19891;SDS011;10108;50.142;8.724;2023-11-21T04:43:52;13.10;;;11.80;;
19891;SDS011;10108;50.142;8.724;2023-11-21T04:46:19;13.38;;;11.60;;
19891;SDS011;10108;50.142;8.724;2023-11-21T04:48:45;15.68;;;12.48;;
19891;SDS011;10108;50.142;8.724;2023-11-21T04:51:11;13.55;;;11.77;;
19891;SDS011;10108;50.142;8.724;2023-11-21T04:53:38;16.05;;;12.98;;
19891;SDS011;10108;50.142;8.724;2023-11-21T04:56:06;17.77;;;13.57;;
19891;SDS011;10108;50.142;8.724;2023-11-21T04:58:32;17.15;;;12.90;;
19891;SDS011;10108;50.142;8.724;2023-11-21T05:00:58;16.73;;;12.32;;
19891;SDS011;10108;50.142;8.724;2023-11-21T05:03:24;16.50;;;13.50;;
19891;SDS011;10108;50.142;8.724;2023-11-21T05:05:51;15.20;;;13.25;;
19891;SDS011;10108;50.142;8.724;2023-11-21T05:08:17;17.52;;;13.13;;
19891;SDS011;10108;50.142;8.724;2023-11-21T05:10:46;16.52;;;13.32;;
19891;SDS011;10108;50.142;8.724;2023-11-21T05:13:12;19.50;;;14.02;;
19891;SDS011;10108;50.142;8.724;2023-11-21T05:15:38;17.90;;;14.20;;
19891;SDS011;10108;50.142;8.724;2023-11-21T05:18:05;19.63;;;14.52;;
19891;SDS011;10108;50.142;8.724;2023-11-21T05:20:32;20.33;;;14.57;;
19891;SDS011;10108;50.142;8.724;2023-11-21T05:22:58;17.02;;;13.25;;
19891;SDS011;10108;50.142;8.724;2023-11-21T05:25:24;19.13;;;14.57;;
19891;SDS011;10108;50.142;8.724;2023-11-21T05:27:51;26.80;;;16.83;;
19891;SDS011;10108;50.142;8.724;2023-11-21T05:30:17;29.77;;;18.75;;
19891;SDS011;10108;50.142;8.724;2023-11-21T05:32:43;30.98;;;18.50;;
19891;SDS011;10108;50.142;8.724;2023-11-21T05:35:09;25.17;;;17.92;;
19891;SDS011;10108;50.142;8.724;2023-11-21T05:37:41;29.80;;;18.17;;
19891;SDS011;10108;50.142;8.724;2023-11-21T05:40:07;27.15;;;17.85;;
19891;SDS011;10108;50.142;8.724;2023-11-21T05:42:35;26.70;;;18.02;;
19891;SDS011;10108;50.142;8.724;2023-11-21T05:45:04;28.55;;;17.15;;
19891;SDS011;10108;50.142;8.724;2023-11-21T05:47:41;26.60;;;16.63;;
19891;SDS011;10108;50.142;8.724;2023-11-21T05:50:12;30.55;;;17.98;;
19891;SDS011;10108;50.142;8.724;2023-11-21T05:52:42;29.98;;;17.58;;
19891;SDS011;10108;50.142;8.724;2023-11-21T05:55:10;30.40;;;18.30;;
19891;SDS011;10108;50.142;8.724;2023-11-21T05:57:37;27.33;;;17.35;;
19891;SDS011;10108;50.142;8.724;2023-11-21T06:02:46;32.50;;;18.60;;
19891;SDS011;10108;50.142;8.724;2023-11-21T06:05:17;26.58;;;17.90;;
19891;SDS011;10108;50.142;8.724;2023-11-21T06:07:44;30.13;;;19.77;;
19891;SDS011;10108;50.142;8.724;2023-11-21T06:10:10;32.38;;;18.42;;
19891;SDS011;10108;50.142;8.724;2023-11-21T06:12:40;34.05;;;19.10;;
19891;SDS011;10108;50.142;8.724;2023-11-21T06:15:08;33.95;;;19.20;;
19891;SDS011;10108;50.142;8.724;2023-11-21T06:17:37;33.53;;;18.70;;
19891;SDS011;10108;50.142;8.724;2023-11-21T06:20:05;35.63;;;20.05;;
19891;SDS011;10108;50.142;8.724;2023-11-21T06:22:38;37.25;;;19.50;;
19891;SDS011;10108;50.142;8.724;2023-11-21T06:25:05;33.70;;;19.13;;
19891;SDS011;10108;50.142;8.724;2023-11-21T06:27:32;30.83;;;17.73;;
19891;SDS011;10108;50.142;8.724;2023-11-21T06:29:58;30.75;;;15.93;;
19891;SDS011;10108;50.142;8.724;2023-11-21T06:32:24;21.25;;;14.07;;
19891;SDS011;10108;50.142;8.724;2023-11-21T06:34:51;21.02;;;13.43;;
19891;SDS011;10108;50.142;8.724;2023-11-21T06:37:20;19.25;;;12.23;;
19891;SDS011;10108;50.142;8.724;2023-11-21T06:39:49;15.93;;;11.48;;
19891;SDS011;10108;50.142;8.724;2023-11-21T06:42:18;17.13;;;11.45;;
19891;SDS011;10108;50.142;8.724;2023-11-21T06:44:48;17.73;;;11.93;;
19891;SDS011;10108;50.142;8.724;2023-11-21T06:47:14;20.15;;;11.50;;
19891;SDS011;10108;50.142;8.724;2023-11-21T06:49:41;15.00;;;11.45;;
19891;SDS011;10108;50.142;8.724;2023-11-21T06:52:08;19.42;;;12.10;;
19891;SDS011;10108;50.142;8.724;2023-11-21T06:54:42;17.70;;;12.18;;
19891;SDS011;10108;50.142;8.724;2023-11-21T06:57:24;16.95;;;11.40;;
19891;SDS011;10108;50.142;8.724;2023-11-21T07:00:04;15.65;;;11.52;;
19891;SDS011;10108;50.142;8.724;2023-11-21T07:02:31;19.52;;;12.45;;
19891;SDS011;10108;50.142;8.724;2023-11-21T07:04:57;18.20;;;13.48;;
19891;SDS011;10108;50.142;8.724;2023-11-21T07:07:24;20.63;;;13.20;;
19891;SDS011;10108;50.142;8.724;2023-11-21T07:09:50;19.77;;;13.18;;
19891;SDS011;10108;50.142;8.724;2023-11-21T07:12:17;19.20;;;13.70;;
19891;SDS011;10108;50.142;8.724;2023-11-21T07:14:43;21.00;;;14.50;;
19891;SDS011;10108;50.142;8.724;2023-11-21T07:17:10;20.50;;;13.88;;
19891;SDS011;10108;50.142;8.724;2023-11-21T07:19:40;21.02;;;14.52;;
19891;SDS011;10108;50.142;8.724;2023-11-21T07:22:07;19.48;;;13.52;;
19891;SDS011;10108;50.142;8.724;2023-11-21T07:24:34;23.60;;;13.15;;
19891;SDS011;10108;50.142;8.724;2023-11-21T07:27:00;19.70;;;13.25;;
19891;SDS011;10108;50.142;8.724;2023-11-21T07:29:26;16.45;;;12.10;;
19891;SDS011;10108;50.142;8.724;2023-11-21T07:31:55;19.83;;;12.85;;
19891;SDS011;10108;50.142;8.724;2023-11-21T07:34:21;18.35;;;12.25;;
19891;SDS011;10108;50.142;8.724;2023-11-21T07:36:47;20.02;;;12.70;;
19891;SDS011;10108;50.142;8.724;2023-11-21T07:39:13;18.30;;;12.60;;
19891;SDS011;10108;50.142;8.724;2023-11-21T07:41:41;18.63;;;12.30;;
19891;SDS011;10108;50.142;8.724;2023-11-21T07:44:14;19.45;;;12.15;;
19891;SDS011;10108;50.142;8.724;2023-11-21T07:46:42;19.67;;;12.80;;
19891;SDS011;10108;50.142;8.724;2023-11-21T07:49:08;21.17;;;12.02;;
19891;SDS011;10108;50.142;8.724;2023-11-21T07:51:34;20.75;;;12.30;;
19891;SDS011;10108;50.142;8.724;2023-11-21T07:54:00;20.73;;;12.48;;
19891;SDS011;10108;50.142;8.724;2023-11-21T07:56:27;19.92;;;12.73;;
19891;SDS011;10108;50.142;8.724;2023-11-21T07:58:53;23.35;;;12.90;;
19891;SDS011;10108;50.142;8.724;2023-11-21T08:01:19;22.35;;;13.07;;
19891;SDS011;10108;50.142;8.724;2023-11-21T08:03:45;22.10;;;12.48;;
19891;SDS011;10108;50.142;8.724;2023-11-21T08:06:12;21.30;;;13.27;;
19891;SDS011;10108;50.142;8.724;2023-11-21T08:08:38;19.33;;;12.00;;
19891;SDS011;10108;50.142;8.724;2023-11-21T08:11:05;20.75;;;12.85;;
19891;SDS011;10108;50.142;8.724;2023-11-21T08:13:31;24.08;;;12.80;;
19891;SDS011;10108;50.142;8.724;2023-11-21T08:15:57;20.73;;;12.93;;
19891;SDS011;10108;50.142;8.724;2023-11-21T08:18:27;21.42;;;13.30;;
19891;SDS011;10108;50.142;8.724;2023-11-21T08:20:57;21.17;;;12.90;;
19891;SDS011;10108;50.142;8.724;2023-11-21T08:23:24;19.27;;;12.43;;
19891;SDS011;10108;50.142;8.724;2023-11-21T08:25:51;26.00;;;13.60;;
19891;SDS011;10108;50.142;8.724;2023-11-21T08:28:18;23.73;;;12.45;;
19891;SDS011;10108;50.142;8.724;2023-11-21T08:30:44;19.67;;;12.50;;
19891;SDS011;10108;50.142;8.724;2023-11-21T08:33:10;21.58;;;12.25;;
19891;SDS011;10108;50.142;8.724;2023-11-21T08:35:37;21.88;;;13.15;;
19891;SDS011;10108;50.142;8.724;2023-11-21T08:38:04;22.58;;;13.07;;
19891;SDS011;10108;50.142;8.724;2023-11-21T08:40:30;21.58;;;12.82;;
19891;SDS011;10108;50.142;8.724;2023-11-21T08:42:56;23.02;;;12.93;;
19891;SDS011;10108;50.142;8.724;2023-11-21T08:45:24;22.38;;;12.48;;
19891;SDS011;10108;50.142;8.724;2023-11-21T08:47:51;23.33;;;12.13;;
19891;SDS011;10108;50.142;8.724;2023-11-21T08:50:17;19.88;;;10.85;;
19891;SDS011;10108;50.142;8.724;2023-11-21T08:52:45;19.15;;;11.45;;
19891;SDS011;10108;50.142;8.724;2023-11-21T08:55:11;22.15;;;11.48;;
19891;SDS011;10108;50.142;8.724;2023-11-21T08:57:38;18.55;;;10.88;;
19891;SDS011;10108;50.142;8.724;2023-11-21T09:00:06;17.77;;;10.45;;
19891;SDS011;10108;50.142;8.724;2023-11-21T09:02:39;22.00;;;10.88;;
19891;SDS011;10108;50.142;8.724;2023-11-21T09:05:08;16.88;;;10.60;;
19891;SDS011;10108;50.142;8.724;2023-11-21T09:07:39;19.13;;;10.50;;
19891;SDS011;10108;50.142;8.724;2023-11-21T09:10:06;19.33;;;9.90;;
19891;SDS011;10108;50.142;8.724;2023-11-21T09:12:35;19.13;;;10.45;;
19891;SDS011;10108;50.142;8.724;2023-11-21T09:15:03;18.00;;;9.93;;
19891;SDS011;10108;50.142;8.724;2023-11-21T09:17:31;17.13;;;9.45;;
19891;SDS011;10108;50.142;8.724;2023-11-21T09:19:58;18.83;;;9.10;;
19891;SDS011;10108;50.142;8.724;2023-11-21T09:22:24;21.38;;;9.50;;
19891;SDS011;10108;50.142;8.724;2023-11-21T09:24:50;17.73;;;9.05;;
19891;SDS011;10108;50.142;8.724;2023-11-21T09:27:17;17.85;;;8.95;;
19891;SDS011;10108;50.142;8.724;2023-11-21T09:29:44;16.05;;;8.90;;
19891;SDS011;10108;50.142;8.724;2023-11-21T09:32:10;19.50;;;9.35;;
19891;SDS011;10108;50.142;8.724;2023-11-21T09:34:39;15.02;;;8.57;;
19891;SDS011;10108;50.142;8.724;2023-11-21T09:37:07;19.92;;;8.65;;
19891;SDS011;10108;50.142;8.724;2023-11-21T09:39:33;15.77;;;8.70;;
19891;SDS011;10108;50.142;8.724;2023-11-21T09:44:48;17.98;;;9.25;;
19891;SDS011;10108;50.142;8.724;2023-11-21T09:47:39;18.75;;;8.68;;
19891;SDS011;10108;50.142;8.724;2023-11-21T09:50:05;18.58;;;8.18;;
19891;SDS011;10108;50.142;8.724;2023-11-21T09:52:46;15.75;;;8.10;;
19891;SDS011;10108;50.142;8.724;2023-11-21T09:55:14;17.45;;;8.95;;
19891;SDS011;10108;50.142;8.724;2023-11-21T09:57:44;20.73;;;8.65;;
19891;SDS011;10108;50.142;8.724;2023-11-21T10:00:11;16.30;;;8.80;;
19891;SDS011;10108;50.142;8.724;2023-11-21T10:02:37;15.35;;;8.15;;
19891;SDS011;10108;50.142;8.724;2023-11-21T10:05:06;17.73;;;8.30;;
19891;SDS011;10108;50.142;8.724;2023-11-21T10:07:35;16.67;;;8.68;;
19891;SDS011;10108;50.142;8.724;2023-11-21T10:10:01;17.58;;;8.55;;
19891;SDS011;10108;50.142;8.724;2023-11-21T10:12:28;16.77;;;8.55;;
19891;SDS011;10108;50.142;8.724;2023-11-21T10:14:57;17.05;;;8.25;;
19891;SDS011;10108;50.142;8.724;2023-11-21T10:17:25;14.23;;;8.10;;
19891;SDS011;10108;50.142;8.724;2023-11-21T10:19:57;15.35;;;7.50;;
19891;SDS011;10108;50.142;8.724;2023-11-21T10:22:24;14.98;;;7.53;;
19891;SDS011;10108;50.142;8.724;2023-11-21T10:24:50;12.75;;;6.82;;
19891;SDS011;10108;50.142;8.724;2023-11-21T10:27:16;16.70;;;6.70;;
19891;SDS011;10108;50.142;8.724;2023-11-21T10:29:42;14.48;;;6.88;;
19891;SDS011;10108;50.142;8.724;2023-11-21T10:32:08;15.18;;;6.97;;
19891;SDS011;10108;50.142;8.724;2023-11-21T10:34:35;12.70;;;6.03;;
19891;SDS011;10108;50.142;8.724;2023-11-21T10:37:22;13.23;;;7.03;;
19891;SDS011;10108;50.142;8.724;2023-11-21T10:39:47;15.38;;;7.00;;
19891;SDS011;10108;50.142;8.724;2023-11-21T10:42:13;16.20;;;7.13;;
19891;SDS011;10108;50.142;8.724;2023-11-21T10:44:41;18.45;;;7.15;;
19891;SDS011;10108;50.142;8.724;2023-11-21T10:47:10;18.25;;;7.95;;
19891;SDS011;10108;50.142;8.724;2023-11-21T10:49:37;17.83;;;7.60;;
19891;SDS011;10108;50.142;8.724;2023-11-21T10:52:03;20.73;;;7.57;;
19891;SDS011;10108;50.142;8.724;2023-11-21T10:54:30;14.75;;;7.88;;
19891;SDS011;10108;50.142;8.724;2023-11-21T10:56:58;18.33;;;7.43;;
19891;SDS011;10108;50.142;8.724;2023-11-21T10:59:26;17.02;;;8.15;;
19891;SDS011;10108;50.142;8.724;2023-11-21T11:01:55;16.90;;;8.07;;
19891;SDS011;10108;50.142;8.724;2023-11-21T11:04:24;13.93;;;7.82;;
19891;SDS011;10108;50.142;8.724;2023-11-21T11:07:01;17.95;;;8.05;;
19891;SDS011;10108;50.142;8.724;2023-11-21T11:09:29;17.52;;;7.80;;
19891;SDS011;10108;50.142;8.724;2023-11-21T11:11:59;15.82;;;8.38;;
19891;SDS011;10108;50.142;8.724;2023-11-21T11:14:26;15.90;;;7.82;;
19891;SDS011;10108;50.142;8.724;2023-11-21T11:16:54;15.00;;;7.60;;
19891;SDS011;10108;50.142;8.724;2023-11-21T11:19:21;14.88;;;8.05;;
19891;SDS011;10108;50.142;8.724;2023-11-21T11:24:49;16.90;;;7.75;;
19891;SDS011;10108;50.142;8.724;2023-11-21T11:27:53;20.30;;;7.55;;
19891;SDS011;10108;50.142;8.724;2023-11-21T11:30:47;15.93;;;7.53;;
19891;SDS011;10108;50.142;8.724;2023-11-21T11:33:39;16.15;;;7.78;;
19891;SDS011;10108;50.142;8.724;2023-11-21T11:38:58;17.25;;;7.95;;
19891;SDS011;10108;50.142;8.724;2023-11-21T11:41:30;16.38;;;7.95;;
19891;SDS011;10108;50.142;8.724;2023-11-21T11:44:00;14.95;;;7.28;;
19891;SDS011;10108;50.142;8.724;2023-11-21T11:46:42;16.63;;;7.65;;
19891;SDS011;10108;50.142;8.724;2023-11-21T11:49:24;15.57;;;7.47;;
19891;SDS011;10108;50.142;8.724;2023-11-21T11:54:56;14.93;;;7.80;;
19891;SDS011;10108;50.142;8.724;2023-11-21T11:57:24;18.38;;;8.05;;
19891;SDS011;10108;50.142;8.724;2023-11-21T12:02:42;16.27;;;7.65;;
19891;SDS011;10108;50.142;8.724;2023-11-21T12:05:11;16.77;;;8.38;;
19891;SDS011;10108;50.142;8.724;2023-11-21T12:07:45;17.75;;;8.10;;
19891;SDS011;10108;50.142;8.724;2023-11-21T12:10:14;15.18;;;7.10;;
19891;SDS011;10108;50.142;8.724;2023-11-21T12:12:47;16.45;;;6.95;;
19891;SDS011;10108;50.142;8.724;2023-11-21T12:15:14;15.07;;;7.22;;
19891;SDS011;10108;50.142;8.724;2023-11-21T12:17:41;18.08;;;8.15;;
19891;SDS011;10108;50.142;8.724;2023-11-21T12:20:15;16.35;;;7.47;;
19891;SDS011;10108;50.142;8.724;2023-11-21T12:22:44;15.73;;;7.00;;
19891;SDS011;10108;50.142;8.724;2023-11-21T12:25:18;12.68;;;6.60;;
19891;SDS011;10108;50.142;8.724;2023-11-21T12:27:49;14.35;;;6.10;;
19891;SDS011;10108;50.142;8.724;2023-11-21T12:30:18;15.90;;;6.25;;
19891;SDS011;10108;50.142;8.724;2023-11-21T12:32:48;13.60;;;6.72;;
19891;SDS011;10108;50.142;8.724;2023-11-21T12:35:19;15.02;;;6.93;;
19891;SDS011;10108;50.142;8.724;2023-11-21T12:37:47;14.05;;;6.32;;
19891;SDS011;10108;50.142;8.724;2023-11-21T12:51:37;17.42;;;6.13;;
19891;SDS011;10108;50.142;8.724;2023-11-21T12:54:03;15.90;;;5.95;;
19891;SDS011;10108;50.142;8.724;2023-11-21T12:56:30;13.82;;;6.03;;
19891;SDS011;10108;50.142;8.724;2023-11-21T12:58:57;13.52;;;6.15;;
19891;SDS011;10108;50.142;8.724;2023-11-21T13:01:25;17.80;;;6.18;;
19891;SDS011;10108;50.142;8.724;2023-11-21T13:03:53;14.65;;;6.00;;
19891;SDS011;10108;50.142;8.724;2023-11-21T13:06:20;13.32;;;5.90;;
19891;SDS011;10108;50.142;8.724;2023-11-21T13:08:50;12.43;;;5.63;;
19891;SDS011;10108;50.142;8.724;2023-11-21T13:11:16;12.60;;;6.03;;
19891;SDS011;10108;50.142;8.724;2023-11-21T13:13:43;13.68;;;6.40;;
19891;SDS011;10108;50.142;8.724;2023-11-21T13:16:09;15.43;;;5.60;;
19891;SDS011;10108;50.142;8.724;2023-11-21T13:18:35;13.05;;;6.60;;
19891;SDS011;10108;50.142;8.724;2023-11-21T13:21:04;15.10;;;6.05;;
19891;SDS011;10108;50.142;8.724;2023-11-21T13:23:39;14.02;;;6.40;;
19891;SDS011;10108;50.142;8.724;2023-11-21T13:26:07;11.48;;;5.63;;
19891;SDS011;10108;50.142;8.724;2023-11-21T13:28:34;13.88;;;6.15;;
19891;SDS011;10108;50.142;8.724;2023-11-21T13:31:02;12.52;;;5.90;;
19891;SDS011;10108;50.142;8.724;2023-11-21T13:33:35;15.00;;;6.38;;
19891;SDS011;10108;50.142;8.724;2023-11-21T13:36:04;12.95;;;6.57;;
19891;SDS011;10108;50.142;8.724;2023-11-21T13:38:33;14.35;;;5.97;;
19891;SDS011;10108;50.142;8.724;2023-11-21T13:41:01;13.65;;;6.07;;
19891;SDS011;10108;50.142;8.724;2023-11-21T13:43:28;14.40;;;5.90;;
19891;SDS011;10108;50.142;8.724;2023-11-21T13:45:55;14.00;;;6.45;;
19891;SDS011;10108;50.142;8.724;2023-11-21T13:48:38;15.98;;;5.82;;
19891;SDS011;10108;50.142;8.724;2023-11-21T13:51:08;13.20;;;5.78;;
19891;SDS011;10108;50.142;8.724;2023-11-21T13:53:46;13.52;;;6.05;;
19891;SDS011;10108;50.142;8.724;2023-11-21T13:56:15;15.20;;;6.20;;
19891;SDS011;10108;50.142;8.724;2023-11-21T13:58:53;14.20;;;5.93;;
19891;SDS011;10108;50.142;8.724;2023-11-21T14:01:22;14.00;;;6.72;;
19891;SDS011;10108;50.142;8.724;2023-11-21T14:04:04;15.68;;;8.43;;
19891;SDS011;10108;50.142;8.724;2023-11-21T14:06:45;14.60;;;8.60;;
19891;SDS011;10108;50.142;8.724;2023-11-21T14:09:17;17.42;;;9.30;;
19891;SDS011;10108;50.142;8.724;2023-11-21T14:11:57;15.68;;;9.00;;
19891;SDS011;10108;50.142;8.724;2023-11-21T14:14:25;20.15;;;9.65;;
19891;SDS011;10108;50.142;8.724;2023-11-21T14:16:53;16.77;;;9.30;;
19891;SDS011;10108;50.142;8.724;2023-11-21T14:19:21;17.58;;;9.52;;
19891;SDS011;10108;50.142;8.724;2023-11-21T14:21:52;15.77;;;8.80;;
19891;SDS011;10108;50.142;8.724;2023-11-21T14:24:18;19.63;;;9.77;;
19891;SDS011;10108;50.142;8.724;2023-11-21T14:26:45;16.50;;;9.90;;
19891;SDS011;10108;50.142;8.724;2023-11-21T14:29:12;19.48;;;10.02;;
19891;SDS011;10108;50.142;8.724;2023-11-21T14:31:45;22.80;;;10.30;;
19891;SDS011;10108;50.142;8.724;2023-11-21T14:34:12;19.20;;;10.27;;
19891;SDS011;10108;50.142;8.724;2023-11-21T14:36:39;24.67;;;10.43;;
19891;SDS011;10108;50.142;8.724;2023-11-21T14:39:06;24.85;;;10.38;;
19891;SDS011;10108;50.142;8.724;2023-11-21T14:41:35;25.52;;;12.38;;
19891;SDS011;10108;50.142;8.724;2023-11-21T14:44:02;22.63;;;11.25;;
19891;SDS011;10108;50.142;8.724;2023-11-21T14:46:29;35.03;;;16.98;;
19891;SDS011;10108;50.142;8.724;2023-11-21T14:48:56;43.72;;;17.75;;
19891;SDS011;10108;50.142;8.724;2023-11-21T14:51:35;36.53;;;14.77;;
19891;SDS011;10108;50.142;8.724;2023-11-21T14:54:21;26.13;;;11.63;;
19891;SDS011;10108;50.142;8.724;2023-11-21T14:57:04;45.92;;;16.85;;
19891;SDS011;10108;50.142;8.724;2023-11-21T14:59:35;35.55;;;15.07;;
19891;SDS011;10108;50.142;8.724;2023-11-21T15:02:01;31.52;;;13.93;;
19891;SDS011;10108;50.142;8.724;2023-11-21T15:04:41;25.75;;;10.85;;
19891;SDS011;10108;50.142;8.724;2023-11-21T15:07:08;19.95;;;10.27;;
19891;SDS011;10108;50.142;8.724;2023-11-21T15:09:36;18.40;;;9.27;;
19891;SDS011;10108;50.142;8.724;2023-11-21T15:12:11;21.02;;;9.80;;
19891;SDS011;10108;50.142;8.724;2023-11-21T15:14:43;21.90;;;9.15;;
19891;SDS011;10108;50.142;8.724;2023-11-21T15:17:13;24.73;;;10.90;;
19891;SDS011;10108;50.142;8.724;2023-11-21T15:19:52;24.17;;;11.00;;
19891;SDS011;10108;50.142;8.724;2023-11-21T15:22:19;24.38;;;11.13;;
19891;SDS011;10108;50.142;8.724;2023-11-21T15:24:45;23.23;;;10.15;;
19891;SDS011;10108;50.142;8.724;2023-11-21T15:27:13;20.50;;;10.38;;
19891;SDS011;10108;50.142;8.724;2023-11-21T15:29:39;20.25;;;11.07;;
19891;SDS011;10108;50.142;8.724;2023-11-21T15:32:06;22.73;;;11.05;;
19891;SDS011;10108;50.142;8.724;2023-11-21T15:34:33;19.23;;;10.60;;
19891;SDS011;10108;50.142;8.724;2023-11-21T15:37:02;22.13;;;11.52;;
19891;SDS011;10108;50.142;8.724;2023-11-21T15:39:30;19.02;;;10.40;;
19891;SDS011;10108;50.142;8.724;2023-11-21T15:41:56;22.25;;;9.85;;
19891;SDS011;10108;50.142;8.724;2023-11-21T15:44:23;23.17;;;10.38;;
19891;SDS011;10108;50.142;8.724;2023-11-21T15:46:52;19.90;;;10.02;;
19891;SDS011;10108;50.142;8.724;2023-11-21T15:49:18;21.17;;;9.80;;
19891;SDS011;10108;50.142;8.724;2023-11-21T15:51:47;24.27;;;10.73;;
19891;SDS011;10108;50.142;8.724;2023-11-21T15:54:18;20.38;;;9.73;;
19891;SDS011;10108;50.142;8.724;2023-11-21T15:56:47;20.33;;;9.65;;
19891;SDS011;10108;50.142;8.724;2023-11-21T15:59:13;18.73;;;10.20;;
19891;SDS011;10108;50.142;8.724;2023-11-21T16:01:40;21.20;;;10.93;;
19891;SDS011;10108;50.142;8.724;2023-11-21T16:04:12;18.38;;;10.55;;
19891;SDS011;10108;50.142;8.724;2023-11-21T16:06:43;19.67;;;11.20;;
19891;SDS011;10108;50.142;8.724;2023-11-21T16:09:10;21.25;;;10.95;;
19891;SDS011;10108;50.142;8.724;2023-11-21T16:11:47;18.65;;;10.20;;
19891;SDS011;10108;50.142;8.724;2023-11-21T16:14:14;20.98;;;10.20;;
19891;SDS011;10108;50.142;8.724;2023-11-21T16:16:45;18.70;;;11.10;;
19891;SDS011;10108;50.142;8.724;2023-11-21T16:19:11;21.02;;;10.00;;
19891;SDS011;10108;50.142;8.724;2023-11-21T16:21:37;22.10;;;10.50;;
19891;SDS011;10108;50.142;8.724;2023-11-21T16:24:03;20.42;;;9.88;;
19891;SDS011;10108;50.142;8.724;2023-11-21T16:26:30;21.17;;;10.35;;